Snow/Ice From: 17-12-2017 10:00 Until: 18-12-2017 06:00 warning for: Snow/Ice Level: Yellow info button

Although rather usual in this region, locally or potentially dangerous phenomena are expected. (such as local winds, summer thunderstorms, rising streams or high waves) Be aware and pay attention to the latest weather updates, especially if you carry out activities exposed to weather or close to a stream or shoreline. 


Meteo18 Weather Cam more information Meteo18 Weather Cam


Thunder radar more information blitzortung!


warning for Snow/Ice more information rain snow radar


Visit our other weather sites:

Template documentation
and downloads

And another site



Weather Underground History page Text

Daily Summary for May 9, 2016 Units:  Metric    English   Both
« Previous Day
Next Day »
Daily Weekly Monthly Yearly Custom
  High: Low: Average:
Temperature: 17.6 °C 14.3 °C 15.4 °C
Dew Point: 15.3 °C 11.4 °C 13 °C
Humidity: 96 % 77 % 86 %
Wind Speed: 11.3 km/h 0.0 km/h 1.4 km/h
Wind Gust: 17.7 km/h - -
Wind:- - WNW
Pressure: 1008.4 hPa 1006.0 hPa -
Precipitation: 5.8 mm    
Historical Graphs
 
 
Tabular Data for May 9, 2016
Time Temperature Dew Point Pressure Wind Wind Speed Wind Gust Humidity Rainfall Rate (Hourly)
00:07 14.7 °C 12.0 °C 1006.7 hPa SSE 3.2 km/h 9.7 km/h 84 % 0.0 mm
00:12 14.8 °C 11.9 °C 1006.7 hPa SE 4.8 km/h 9.7 km/h 83 % 0.0 mm
00:17 15.0 °C 11.8 °C 1006.7 hPa West 4.8 km/h 12.9 km/h 81 % 0.0 mm
00:27 15.4 °C 11.6 °C 1006.7 hPa NNW 11.3 km/h 17.7 km/h 78 % 0.0 mm
00:32 15.4 °C 11.6 °C 1007.0 hPa NNW 4.8 km/h 17.7 km/h 78 % 0.0 mm
00:42 15.3 °C 11.7 °C 1007.0 hPa NNW 3.2 km/h 16.1 km/h 79 % 0.0 mm
00:47 15.3 °C 11.9 °C 1007.0 hPa NW 4.8 km/h 11.3 km/h 80 % 0.0 mm
00:52 15.2 °C 11.8 °C 1007.0 hPa North 4.8 km/h 11.3 km/h 80 % 0.0 mm
00:57 15.1 °C 11.9 °C 1007.0 hPa NW 4.8 km/h 11.3 km/h 81 % 0.0 mm
01:02 15.0 °C 11.8 °C 1007.0 hPa SSE 1.6 km/h 9.7 km/h 81 % 0.0 mm
01:07 14.9 °C 11.9 °C 1007.0 hPa Calm   11.3 km/h 82 % 0.0 mm
01:12 14.8 °C 11.9 °C 1007.0 hPa Calm   11.3 km/h 83 % 0.0 mm
01:17 14.8 °C 11.9 °C 1007.0 hPa Calm   11.3 km/h 83 % 0.0 mm
01:22 14.7 °C 12.0 °C 1007.0 hPa NW 1.6 km/h 9.7 km/h 84 % 0.0 mm
01:32 14.6 °C 11.9 °C 1007.0 hPa WSW 1.6 km/h 4.8 km/h 84 % 0.0 mm
01:37 14.6 °C 11.9 °C 1007.0 hPa Calm   4.8 km/h 84 % 0.0 mm
01:42 14.6 °C 11.9 °C 1007.0 hPa Calm   4.8 km/h 84 % 0.0 mm
01:47 14.7 °C 12.0 °C 1007.0 hPa NW 3.2 km/h 4.8 km/h 84 % 0.0 mm
01:52 14.7 °C 12.0 °C 1007.0 hPa NW 1.6 km/h 6.4 km/h 84 % 0.0 mm
01:57 14.6 °C 11.9 °C 1007.0 hPa WNW 1.6 km/h 6.4 km/h 84 % 0.0 mm
02:02 14.5 °C 12.0 °C 1007.0 hPa Calm   4.8 km/h 85 % 0.0 mm
02:07 14.4 °C 11.9 °C 1007.0 hPa Calm   4.8 km/h 85 % 0.0 mm
02:12 14.3 °C 11.8 °C 1007.0 hPa Calm   4.8 km/h 85 % 0.0 mm
02:17 14.4 °C 11.7 °C 1007.0 hPa Calm   3.2 km/h 84 % 0.0 mm
02:22 14.4 °C 11.7 °C 1006.7 hPa ESE 3.2 km/h 6.4 km/h 84 % 0.0 mm
02:27 14.4 °C 11.7 °C 1006.7 hPa Calm   6.4 km/h 84 % 0.0 mm
02:32 14.4 °C 11.9 °C 1006.7 hPa Calm   8.0 km/h 85 % 0.0 mm
02:37 14.4 °C 11.7 °C 1006.7 hPa NW 1.6 km/h 8.0 km/h 84 % 0.0 mm
02:42 14.4 °C 11.7 °C 1006.7 hPa Calm   8.0 km/h 84 % 0.0 mm
02:47 14.4 °C 11.7 °C 1006.7 hPa NNW 3.2 km/h 4.8 km/h 84 % 0.0 mm
02:52 14.6 °C 11.7 °C 1006.7 hPa WNW 3.2 km/h 9.7 km/h 83 % 0.0 mm
02:57 14.6 °C 11.7 °C 1006.7 hPa North 3.2 km/h 9.7 km/h 83 % 0.0 mm
03:02 14.6 °C 11.7 °C 1006.7 hPa Calm   9.7 km/h 83 % 0.0 mm
03:07 14.6 °C 11.7 °C 1006.7 hPa Calm   9.7 km/h 83 % 0.0 mm
03:12 14.6 °C 11.7 °C 1006.7 hPa WNW 3.2 km/h 9.7 km/h 83 % 0.0 mm
03:17 14.6 °C 11.7 °C 1006.7 hPa NW 4.8 km/h 9.7 km/h 83 % 0.0 mm
03:22 14.6 °C 11.7 °C 1006.7 hPa NW 1.6 km/h 8.0 km/h 83 % 0.0 mm
03:27 14.6 °C 11.7 °C 1006.7 hPa NW 1.6 km/h 8.0 km/h 83 % 0.0 mm
03:32 14.6 °C 11.7 °C 1006.7 hPa Calm   6.4 km/h 83 % 0.0 mm
03:37 14.5 °C 11.6 °C 1006.7 hPa Calm   6.4 km/h 83 % 0.0 mm
03:42 14.5 °C 11.6 °C 1006.7 hPa Calm   4.8 km/h 83 % 0.0 mm
03:47 14.5 °C 11.6 °C 1006.7 hPa Calm   4.8 km/h 83 % 0.0 mm
03:57 14.6 °C 11.7 °C 1006.7 hPa West 1.6 km/h 6.4 km/h 83 % 0.0 mm
04:02 14.6 °C 11.7 °C 1006.7 hPa Calm   6.4 km/h 83 % 0.0 mm
04:07 14.4 °C 11.7 °C 1006.7 hPa Calm   6.4 km/h 84 % 0.0 mm
04:12 14.4 °C 11.5 °C 1006.7 hPa NW 9.7 km/h 9.7 km/h 83 % 0.0 mm
04:17 14.7 °C 11.7 °C 1006.7 hPa Calm   9.7 km/h 82 % 0.0 mm
04:22 14.7 °C 11.7 °C 1006.7 hPa Calm   9.7 km/h 82 % 0.0 mm
04:27 14.6 °C 11.6 °C 1006.3 hPa Calm   9.7 km/h 82 % 0.0 mm
04:32 14.6 °C 11.6 °C 1006.3 hPa NNW 1.6 km/h 11.3 km/h 82 % 0.0 mm
04:37 14.6 °C 11.6 °C 1006.3 hPa Calm   11.3 km/h 82 % 0.0 mm
04:42 14.4 °C 11.4 °C 1006.3 hPa WSW 1.6 km/h 11.3 km/h 82 % 0.0 mm
04:47 14.4 °C 11.4 °C 1006.3 hPa Calm   4.8 km/h 82 % 0.0 mm
04:52 14.4 °C 11.5 °C 1006.3 hPa Calm   4.8 km/h 83 % 0.0 mm
04:57 14.4 °C 11.5 °C 1006.3 hPa WNW 1.6 km/h 4.8 km/h 83 % 0.0 mm
05:02 14.4 °C 11.5 °C 1006.3 hPa West 1.6 km/h 3.2 km/h 83 % 0.0 mm
05:07 14.4 °C 11.5 °C 1006.3 hPa Calm   4.8 km/h 83 % 0.0 mm
05:12 14.4 °C 11.5 °C 1006.3 hPa Calm   4.8 km/h 83 % 0.0 mm
05:17 14.6 °C 11.6 °C 1006.3 hPa Calm   6.4 km/h 82 % 0.0 mm
05:22 14.6 °C 11.6 °C 1006.3 hPa WNW 1.6 km/h 6.4 km/h 82 % 0.0 mm
05:27 14.7 °C 11.7 °C 1006.3 hPa WNW 3.2 km/h 6.4 km/h 82 % 0.0 mm
05:32 14.8 °C 11.6 °C 1006.3 hPa NW 1.6 km/h 6.4 km/h 81 % 0.0 mm
05:37 14.8 °C 11.8 °C 1006.3 hPa East 1.6 km/h 8.0 km/h 82 % 0.0 mm
05:42 14.7 °C 11.7 °C 1006.3 hPa NNE 3.2 km/h 8.0 km/h 82 % 0.0 mm
05:47 14.7 °C 11.7 °C 1006.3 hPa Calm   8.0 km/h 82 % 0.0 mm
05:52 14.8 °C 11.6 °C 1006.3 hPa NW 1.6 km/h 8.0 km/h 81 % 0.0 mm
05:57 14.8 °C 11.6 °C 1006.0 hPa Calm   8.0 km/h 81 % 0.0 mm
06:02 14.8 °C 11.6 °C 1006.0 hPa ESE 1.6 km/h 8.0 km/h 81 % 0.0 mm
06:07 14.9 °C 11.7 °C 1006.0 hPa Calm   11.3 km/h 81 % 0.0 mm
06:12 14.8 °C 11.6 °C 1006.0 hPa NW 1.6 km/h 11.3 km/h 81 % 0.0 mm
06:17 14.8 °C 11.6 °C 1006.0 hPa Calm   11.3 km/h 81 % 0.0 mm
06:22 14.9 °C 11.5 °C 1006.0 hPa NW 3.2 km/h 8.0 km/h 80 % 0.0 mm
06:27 14.9 °C 11.7 °C 1006.0 hPa NW 4.8 km/h 14.5 km/h 81 % 0.0 mm
06:32 14.9 °C 11.7 °C 1006.3 hPa Calm   14.5 km/h 81 % 0.0 mm
06:37 14.9 °C 11.7 °C 1006.3 hPa WNW 4.8 km/h 14.5 km/h 81 % 0.0 mm
06:42 14.9 °C 11.7 °C 1006.3 hPa Calm   11.3 km/h 81 % 0.0 mm
06:52 14.8 °C 11.6 °C 1006.3 hPa NW 4.8 km/h 11.3 km/h 81 % 0.0 mm
06:57 14.8 °C 11.6 °C 1006.3 hPa NNW 6.4 km/h 6.4 km/h 81 % 0.0 mm
07:02 14.9 °C 11.7 °C 1006.3 hPa Calm   11.3 km/h 81 % 0.0 mm
07:07 14.9 °C 11.7 °C 1006.3 hPa Calm   11.3 km/h 81 % 0.0 mm
07:17 14.9 °C 11.7 °C 1006.3 hPa NNW 4.8 km/h 6.4 km/h 81 % 0.0 mm
07:22 14.9 °C 11.7 °C 1006.3 hPa Calm   6.4 km/h 81 % 0.0 mm
07:27 14.9 °C 11.7 °C 1006.3 hPa Calm   6.4 km/h 81 % 0.0 mm
07:32 15.0 °C 12.0 °C 1006.3 hPa Calm   9.7 km/h 82 % 0.0 mm
07:37 15.0 °C 11.8 °C 1006.3 hPa NNE 1.6 km/h 9.7 km/h 81 % 0.0 mm
07:42 15.1 °C 12.0 °C 1006.3 hPa NNW 1.6 km/h 9.7 km/h 82 % 0.0 mm
07:47 15.1 °C 11.9 °C 1006.3 hPa NNW 1.6 km/h 9.7 km/h 81 % 0.0 mm
07:52 15.1 °C 11.9 °C 1006.7 hPa NNW 1.6 km/h 9.7 km/h 81 % 0.0 mm
07:57 15.1 °C 11.9 °C 1006.7 hPa West 1.6 km/h 9.7 km/h 81 % 0.0 mm
08:02 15.1 °C 12.0 °C 1006.7 hPa NNW 4.8 km/h 8.0 km/h 82 % 0.0 mm
08:12 15.2 °C 12.0 °C 1006.7 hPa NNW 3.2 km/h 14.5 km/h 81 % 0.0 mm
08:17 15.2 °C 12.1 °C 1006.7 hPa Calm   14.5 km/h 82 % 0.0 mm
08:22 15.2 °C 12.1 °C 1006.7 hPa ENE 4.8 km/h 9.7 km/h 82 % 0.0 mm
08:32 15.1 °C 12.0 °C 1006.7 hPa NNW 3.2 km/h 12.9 km/h 82 % 0.0 mm
08:37 15.1 °C 12.2 °C 1006.7 hPa Calm   12.9 km/h 83 % 0.0 mm
08:42 15.2 °C 12.1 °C 1006.7 hPa NNW 4.8 km/h 8.0 km/h 82 % 0.0 mm
08:47 15.3 °C 12.2 °C 1006.7 hPa Calm   8.0 km/h 82 % 0.0 mm
08:52 15.3 °C 12.2 °C 1006.7 hPa NNW 3.2 km/h 8.0 km/h 82 % 0.0 mm
09:02 15.3 °C 12.2 °C 1006.7 hPa NW 1.6 km/h 4.8 km/h 82 % 0.0 mm
09:07 15.3 °C 12.2 °C 1006.7 hPa NW 1.6 km/h 4.8 km/h 82 % 0.0 mm
09:12 15.3 °C 12.2 °C 1006.7 hPa NW 1.6 km/h 6.4 km/h 82 % 0.0 mm
09:17 15.4 °C 12.5 °C 1006.7 hPa Calm   8.0 km/h 83 % 0.0 mm
09:22 15.4 °C 12.3 °C 1006.7 hPa NW 3.2 km/h 8.0 km/h 82 % 0.0 mm
09:32 15.6 °C 12.5 °C 1006.7 hPa Calm   6.4 km/h 82 % 0.0 mm
09:37 15.6 °C 12.5 °C 1006.7 hPa NW 6.4 km/h 6.4 km/h 82 % 0.0 mm
09:42 15.7 °C 12.6 °C 1006.7 hPa North 3.2 km/h 9.7 km/h 82 % 0.0 mm
09:47 15.7 °C 12.4 °C 1007.0 hPa Calm   9.7 km/h 81 % 0.0 mm
09:52 15.9 °C 12.6 °C 1006.7 hPa NNW 1.6 km/h 9.7 km/h 81 % 0.0 mm
09:57 16.2 °C 12.7 °C 1006.7 hPa NNW 6.4 km/h 9.7 km/h 80 % 0.0 mm
10:02 16.2 °C 12.7 °C 1006.7 hPa NW 3.2 km/h 9.7 km/h 80 % 0.0 mm
10:07 16.2 °C 12.9 °C 1007.0 hPa NNW 3.2 km/h 9.7 km/h 81 % 0.0 mm
10:12 16.1 °C 12.8 °C 1007.0 hPa West 3.2 km/h 9.7 km/h 81 % 0.0 mm
10:17 16.1 °C 12.6 °C 1007.0 hPa NNW 3.2 km/h 9.7 km/h 80 % 0.0 mm
10:22 16.1 °C 12.8 °C 1007.3 hPa Calm   8.0 km/h 81 % 0.0 mm
10:32 16.0 °C 12.7 °C 1007.3 hPa North 4.8 km/h 6.4 km/h 81 % 0.0 mm
10:37 15.9 °C 12.6 °C 1007.3 hPa NW 4.8 km/h 8.0 km/h 81 % 0.0 mm
10:42 15.9 °C 12.6 °C 1007.3 hPa WSW 4.8 km/h 8.0 km/h 81 % 0.0 mm
10:47 15.9 °C 12.6 °C 1007.3 hPa Calm   8.0 km/h 81 % 0.0 mm
10:52 15.9 °C 12.6 °C 1007.3 hPa West 1.6 km/h 6.4 km/h 81 % 0.0 mm
10:57 15.9 °C 12.6 °C 1007.3 hPa Calm   4.8 km/h 81 % 0.0 mm
11:02 15.9 °C 12.6 °C 1007.3 hPa Calm   6.4 km/h 81 % 0.0 mm
11:07 16.2 °C 12.9 °C 1007.3 hPa NNW 1.6 km/h 6.4 km/h 81 % 0.0 mm
11:12 16.5 °C 13.2 °C 1007.3 hPa NW 1.6 km/h 8.0 km/h 81 % 0.0 mm
11:17 16.9 °C 13.2 °C 1007.3 hPa NNW 3.2 km/h 8.0 km/h 79 % 0.0 mm
11:22 17.1 °C 13.4 °C 1007.3 hPa NNW 8.0 km/h 11.3 km/h 79 % 0.0 mm
11:27 17.2 °C 13.3 °C 1007.3 hPa NW 1.6 km/h 11.3 km/h 78 % 0.0 mm
11:32 17.4 °C 13.5 °C 1007.3 hPa NW 1.6 km/h 11.3 km/h 78 % 0.0 mm
11:37 17.6 °C 13.7 °C 1007.3 hPa NNW 6.4 km/h 8.0 km/h 78 % 0.0 mm
11:42 17.6 °C 13.5 °C 1007.3 hPa NW 3.2 km/h 8.0 km/h 77 % 0.0 mm
11:47 17.6 °C 13.5 °C 1007.3 hPa NNW 6.4 km/h 8.0 km/h 77 % 0.0 mm
11:52 17.5 °C 13.4 °C 1007.3 hPa NNW 4.8 km/h 9.7 km/h 77 % 0.0 mm
11:57 17.4 °C 13.3 °C 1007.3 hPa NNW 4.8 km/h 9.7 km/h 77 % 0.0 mm
12:02 17.4 °C 13.3 °C 1007.3 hPa NW 6.4 km/h 12.9 km/h 77 % 0.0 mm
12:07 17.4 °C 13.3 °C 1007.3 hPa NNW 6.4 km/h 12.9 km/h 77 % 0.0 mm
12:12 17.4 °C 13.3 °C 1007.3 hPa WNW 3.2 km/h 12.9 km/h 77 % 0.0 mm
12:17 17.4 °C 13.5 °C 1007.3 hPa WNW 1.6 km/h 12.9 km/h 78 % 0.0 mm
12:22 17.4 °C 13.3 °C 1007.3 hPa NW 3.2 km/h 12.9 km/h 77 % 0.0 mm
12:32 17.3 °C 13.2 °C 1007.7 hPa NNW 3.2 km/h 9.7 km/h 77 % 0.0 mm
12:42 17.1 °C 13.4 °C 1007.7 hPa Calm   11.3 km/h 79 % 0.0 mm
12:52 17.0 °C 13.5 °C 1007.7 hPa Calm   4.8 km/h 80 % 0.0 mm
12:57 16.9 °C 13.6 °C 1007.7 hPa Calm   4.8 km/h 81 % 0.0 mm
13:02 16.8 °C 13.5 °C 1007.7 hPa Calm   4.8 km/h 81 % 0.0 mm
13:07 16.8 °C 13.5 °C 1007.7 hPa Calm   6.4 km/h 81 % 0.0 mm
13:12 16.8 °C 13.5 °C 1007.7 hPa Calm   6.4 km/h 81 % 0.0 mm
13:17 16.8 °C 13.5 °C 1007.7 hPa NNW 1.6 km/h 6.4 km/h 81 % 0.0 mm
13:22 16.8 °C 13.5 °C 1008.0 hPa Calm   6.4 km/h 81 % 0.0 mm
13:32 16.8 °C 13.5 °C 1008.0 hPa NNW 1.6 km/h 3.2 km/h 81 % 0.0 mm
13:37 16.8 °C 13.3 °C 1008.0 hPa Calm   3.2 km/h 80 % 0.0 mm
13:47 16.9 °C 14.0 °C 1008.4 hPa Calm   4.8 km/h 83 % 0.0 mm
13:52 16.9 °C 13.8 °C 1008.0 hPa Calm   1.6 km/h 82 % 0.0 mm
13:57 17.0 °C 13.7 °C 1008.0 hPa Calm   1.6 km/h 81 % 0.0 mm
14:02 17.1 °C 13.8 °C 1008.0 hPa NW 1.6 km/h 4.8 km/h 81 % 0.0 mm
14:07 17.1 °C 13.6 °C 1008.0 hPa ESE 1.6 km/h 4.8 km/h 80 % 0.0 mm
14:12 17.2 °C 13.7 °C 1008.0 hPa Calm   4.8 km/h 80 % 0.0 mm
14:17 17.1 °C 13.4 °C 1008.0 hPa Calm   8.0 km/h 79 % 0.0 mm
14:22 17.1 °C 13.6 °C 1008.4 hPa Calm   8.0 km/h 80 % 0.0 mm
14:27 17.1 °C 13.6 °C 1008.4 hPa Calm   8.0 km/h 80 % 0.0 mm
14:32 17.1 °C 13.8 °C 1008.4 hPa Calm   6.4 km/h 81 % 0.0 mm
14:37 16.8 °C 13.7 °C 1008.4 hPa NW 1.6 km/h 6.4 km/h 82 % 0.0 mm
14:42 16.6 °C 13.7 °C 1008.4 hPa Calm   8.0 km/h 83 % 0.0 mm
14:47 16.5 °C 13.8 °C 1008.4 hPa Calm   8.0 km/h 84 % 0.0 mm
14:52 16.4 °C 13.9 °C 1008.4 hPa Calm   8.0 km/h 85 % 0.0 mm
14:57 16.4 °C 14.1 °C 1008.4 hPa Calm   3.2 km/h 86 % 0.3 mm
15:02 16.3 °C 14.0 °C 1008.4 hPa Calm   1.6 km/h 86 % 0.3 mm
15:07 16.2 °C 14.2 °C 1008.0 hPa Calm     88 % 0.5 mm
15:12 16.1 °C 14.1 °C 1008.0 hPa Calm     88 % 0.5 mm
15:17 16.0 °C 14.2 °C 1008.0 hPa Calm   1.6 km/h 89 % 0.5 mm
15:22 15.9 °C 14.1 °C 1008.0 hPa Calm   3.2 km/h 89 % 0.5 mm
15:27 16.0 °C 14.2 °C 1008.0 hPa Calm   3.2 km/h 89 % 0.5 mm
15:32 16.0 °C 14.4 °C 1008.0 hPa Calm   3.2 km/h 90 % 0.5 mm
15:42 15.9 °C 14.3 °C 1008.0 hPa Calm   1.6 km/h 90 % 0.5 mm
15:47 15.9 °C 14.3 °C 1008.0 hPa Calm   1.6 km/h 90 % 0.5 mm
15:52 15.9 °C 14.3 °C 1008.0 hPa Calm   1.6 km/h 90 % 0.5 mm
15:57 16.0 °C 14.5 °C 1008.0 hPa Calm   1.6 km/h 91 % 0.3 mm
16:02 16.2 °C 14.7 °C 1008.0 hPa Calm   1.6 km/h 91 % 0.3 mm
16:07 16.3 °C 14.7 °C 1007.7 hPa Calm   1.6 km/h 90 % 0.0 mm
16:12 16.4 °C 14.8 °C 1007.7 hPa Calm   1.6 km/h 90 % 0.0 mm
16:17 16.4 °C 14.6 °C 1007.7 hPa Calm     89 % 0.0 mm
16:22 16.5 °C 14.7 °C 1007.7 hPa Calm     89 % 0.0 mm
16:27 16.6 °C 15.0 °C 1007.7 hPa Calm   1.6 km/h 90 % 0.0 mm
16:32 16.7 °C 14.9 °C 1007.7 hPa WSW 1.6 km/h 1.6 km/h 89 % 0.0 mm
16:37 16.8 °C 14.6 °C 1007.7 hPa Calm   4.8 km/h 87 % 0.0 mm
16:42 16.8 °C 14.8 °C 1007.7 hPa Calm   4.8 km/h 88 % 0.0 mm
16:47 16.9 °C 14.9 °C 1007.3 hPa West 1.6 km/h 4.8 km/h 88 % 0.0 mm
17:02 17.1 °C 15.1 °C 1007.3 hPa Calm   8.0 km/h 88 % 0.3 mm
17:07 17.1 °C 15.3 °C 1007.3 hPa Calm   6.4 km/h 89 % 0.3 mm
17:14 17.0 °C 15.2 °C 1007.7 hPa SE 1.6 km/h 6.4 km/h 89 % 0.5 mm
17:22 16.5 °C 14.5 °C 1007.7 hPa WNW 1.6 km/h 14.5 km/h 88 % 0.5 mm
17:32 16.1 °C 14.5 °C 1007.7 hPa Calm   11.3 km/h 90 % 0.5 mm
17:42 15.8 °C 14.3 °C 1007.7 hPa NNW 1.6 km/h 9.7 km/h 91 % 0.8 mm
17:52 15.6 °C 14.3 °C 1007.7 hPa NNW 4.8 km/h 9.7 km/h 92 % 0.5 mm
17:57 15.6 °C 14.3 °C 1007.7 hPa Calm   9.7 km/h 92 % 0.8 mm
18:02 15.6 °C 14.3 °C 1007.7 hPa WNW 1.6 km/h 9.7 km/h 92 % 0.8 mm
18:07 15.5 °C 14.2 °C 1007.7 hPa Calm   4.8 km/h 92 % 0.8 mm
18:12 15.4 °C 14.1 °C 1007.7 hPa West 1.6 km/h 4.8 km/h 92 % 0.5 mm
18:22 15.4 °C 14.3 °C 1007.7 hPa SSW 1.6 km/h 4.8 km/h 93 % 0.5 mm
18:27 15.4 °C 14.3 °C 1007.7 hPa Calm   4.8 km/h 93 % 0.5 mm
18:32 15.3 °C 14.2 °C 1007.7 hPa West 1.6 km/h 6.4 km/h 93 % 0.5 mm
18:42 15.3 °C 14.2 °C 1007.7 hPa Calm   6.4 km/h 93 % 0.5 mm
18:47 15.2 °C 14.1 °C 1007.7 hPa Calm   4.8 km/h 93 % 0.5 mm
18:52 15.2 °C 14.2 °C 1007.7 hPa North 1.6 km/h 4.8 km/h 94 % 0.8 mm
18:57 15.1 °C 14.1 °C 1007.7 hPa Calm   4.8 km/h 94 % 0.5 mm
19:02 15.1 °C 14.1 °C 1007.7 hPa Calm   4.8 km/h 94 % 0.5 mm
19:07 15.1 °C 14.1 °C 1007.7 hPa Calm   8.0 km/h 94 % 0.5 mm
19:12 15.1 °C 14.1 °C 1007.7 hPa Calm   8.0 km/h 94 % 0.8 mm
19:17 15.1 °C 14.3 °C 1007.7 hPa Calm   8.0 km/h 95 % 0.8 mm
19:22 15.1 °C 14.3 °C 1007.7 hPa Calm   4.8 km/h 95 % 1.0 mm
19:27 15.1 °C 14.3 °C 1007.7 hPa Calm   1.6 km/h 95 % 1.0 mm
19:32 15.1 °C 14.3 °C 1007.7 hPa Calm     95 % 0.8 mm
19:37 15.0 °C 14.2 °C 1007.7 hPa Calm     95 % 0.8 mm
19:42 15.0 °C 14.2 °C 1007.7 hPa Calm   1.6 km/h 95 % 0.8 mm
19:47 15.0 °C 14.2 °C 1007.7 hPa Calm   1.6 km/h 95 % 0.5 mm
19:52 14.9 °C 14.1 °C 1007.7 hPa Calm   1.6 km/h 95 % 0.8 mm
19:57 14.9 °C 14.1 °C 1007.7 hPa Calm     95 % 0.8 mm
20:02 14.9 °C 14.1 °C 1007.7 hPa Calm     95 % 1.0 mm
20:07 14.9 °C 14.1 °C 1007.7 hPa Calm     95 % 0.8 mm
20:12 14.9 °C 14.1 °C 1008.0 hPa Calm     95 % 0.8 mm
20:17 14.8 °C 14.0 °C 1008.0 hPa Calm     95 % 0.8 mm
20:32 14.7 °C 13.9 °C 1008.0 hPa Calm   4.8 km/h 95 % 0.8 mm
20:37 14.7 °C 13.9 °C 1008.0 hPa Calm   4.8 km/h 95 % 0.8 mm
20:42 14.7 °C 13.9 °C 1008.0 hPa Calm   3.2 km/h 95 % 0.8 mm
20:47 14.7 °C 13.9 °C 1008.0 hPa Calm   3.2 km/h 95 % 0.5 mm
20:52 14.7 °C 13.9 °C 1008.0 hPa NNW 1.6 km/h 6.4 km/h 95 % 0.8 mm
20:57 14.7 °C 13.9 °C 1008.0 hPa Calm   6.4 km/h 95 % 0.8 mm
21:02 14.7 °C 13.9 °C 1008.0 hPa Calm   6.4 km/h 95 % 0.5 mm
21:12 14.7 °C 13.9 °C 1008.0 hPa West 1.6 km/h 4.8 km/h 95 % 0.8 mm
21:17 14.6 °C 13.8 °C 1008.0 hPa WNW 1.6 km/h 4.8 km/h 95 % 0.5 mm
21:22 14.6 °C 13.8 °C 1008.0 hPa Calm   4.8 km/h 95 % 0.8 mm
21:32 14.6 °C 14.0 °C 1008.0 hPa Calm   4.8 km/h 96 % 0.8 mm
21:37 14.6 °C 14.0 °C 1008.0 hPa Calm   4.8 km/h 96 % 0.8 mm
21:42 14.6 °C 14.0 °C 1008.0 hPa Calm   4.8 km/h 96 % 0.8 mm
21:52 14.6 °C 14.0 °C 1008.4 hPa Calm   4.8 km/h 96 % 0.8 mm
21:57 14.6 °C 14.0 °C 1008.4 hPa NW 1.6 km/h 4.8 km/h 96 % 1.0 mm
22:02 14.7 °C 14.1 °C 1008.4 hPa WNW 1.6 km/h 4.8 km/h 96 % 0.8 mm
22:07 14.7 °C 14.1 °C 1008.4 hPa Calm   4.8 km/h 96 % 1.0 mm
22:12 14.7 °C 14.1 °C 1008.4 hPa North 6.4 km/h 6.4 km/h 96 % 1.0 mm
22:17 14.6 °C 14.0 °C 1008.0 hPa Calm   6.4 km/h 96 % 1.3 mm
22:22 14.6 °C 14.0 °C 1008.0 hPa SE 1.6 km/h 6.4 km/h 96 % 1.0 mm
22:27 14.6 °C 14.0 °C 1008.0 hPa NW 4.8 km/h 6.4 km/h 96 % 1.3 mm
22:32 14.6 °C 14.0 °C 1008.0 hPa Calm   6.4 km/h 96 % 1.0 mm
22:37 14.6 °C 14.0 °C 1008.0 hPa Calm   6.4 km/h 96 % 1.0 mm
22:42 14.6 °C 14.0 °C 1008.0 hPa NW 3.2 km/h 4.8 km/h 96 % 0.8 mm
22:52 14.5 °C 13.9 °C 1008.0 hPa Calm   4.8 km/h 96 % 1.0 mm
22:57 14.5 °C 13.9 °C 1008.0 hPa Calm   4.8 km/h 96 % 1.0 mm
23:02 14.4 °C 13.8 °C 1007.7 hPa Calm   3.2 km/h 96 % 1.0 mm
23:07 14.4 °C 13.8 °C 1007.7 hPa Calm   1.6 km/h 96 % 0.8 mm
23:12 14.4 °C 13.8 °C 1007.7 hPa Calm     96 % 0.5 mm
23:17 14.4 °C 13.8 °C 1007.7 hPa Calm   1.6 km/h 96 % 0.5 mm
23:22 14.4 °C 13.8 °C 1008.0 hPa West 3.2 km/h 3.2 km/h 96 % 0.5 mm
23:27 14.4 °C 13.8 °C 1007.7 hPa Calm   4.8 km/h 96 % 0.5 mm
23:32 14.4 °C 13.8 °C 1007.7 hPa Calm   4.8 km/h 96 % 0.5 mm
23:42 14.4 °C 13.8 °C 1007.7 hPa Calm   4.8 km/h 96 % 0.5 mm
23:47 14.5 °C 13.9 °C 1007.7 hPa Calm   6.4 km/h 96 % 0.5 mm
23:52 14.5 °C 13.7 °C 1007.7 hPa Calm   6.4 km/h 95 % 0.3 mm
23:57 14.5 °C 13.7 °C 1007.3 hPa North 1.6 km/h 6.4 km/h 95 % 0.3 mm
Meteo18
Compliments of Weather Underground - 4 mb

Script developed by  Jim McMurry - jmcmurry@mwt.net Adapted for the template by  Wim van der Kuil - Leuven-Template.eu

You find our weather info also at:

European Weather Network

Weather Underground

Equipment we use:

Weather-station
Davis Vue

Weather-program
Meteohub

Weather-server
Raspberry PI 2 B+

Provider
1 and 1

Davis Vue

Meteohub

Raspberry PI 2 B+

1 and 1